createdAt,value
2023-05-20T00:01:25.469Z,3.08
2023-05-20T00:03:52.598Z,3.70
2023-05-20T00:06:19.933Z,3.10
2023-05-20T00:08:46.984Z,3.25
2023-05-20T00:11:13.960Z,3.55
2023-05-20T00:13:41.011Z,3.25
2023-05-20T00:16:08.082Z,5.38
2023-05-20T00:18:35.305Z,3.20
2023-05-20T00:21:02.332Z,2.92
2023-05-20T00:23:29.354Z,3.38
2023-05-20T00:25:58.377Z,10.32
2023-05-20T00:28:26.880Z,4.40
2023-05-20T00:30:54.932Z,3.75
2023-05-20T00:33:21.933Z,3.05
2023-05-20T00:35:49.113Z,3.08
2023-05-20T00:38:16.196Z,3.28
2023-05-20T00:40:43.140Z,4.00
2023-05-20T00:43:10.239Z,3.35
2023-05-20T00:45:38.391Z,3.53
2023-05-20T00:48:06.468Z,3.63
2023-05-20T00:50:33.951Z,3.78
2023-05-20T00:53:01.533Z,3.75
2023-05-20T00:55:28.751Z,3.40
2023-05-20T00:57:56.149Z,3.20
2023-05-20T01:00:23.462Z,3.38
2023-05-20T01:02:50.957Z,3.55
2023-05-20T01:05:18.161Z,3.67
2023-05-20T01:07:45.441Z,4.35
2023-05-20T01:10:12.527Z,3.80
2023-05-20T01:13:01.765Z,3.25
2023-05-20T01:15:30.210Z,3.80
2023-05-20T01:18:01.844Z,3.35
2023-05-20T01:20:32.606Z,3.30
2023-05-20T01:22:59.960Z,3.65
2023-05-20T01:25:27.066Z,3.47
2023-05-20T01:27:57.764Z,2.92
2023-05-20T01:30:30.813Z,3.55
2023-05-20T01:33:07.098Z,3.42
2023-05-20T01:35:35.470Z,3.03
2023-05-20T01:38:05.442Z,3.25
2023-05-20T01:40:33.887Z,2.90
2023-05-20T01:43:02.945Z,3.13
2023-05-20T01:45:30.052Z,3.55
2023-05-20T01:47:57.037Z,3.35
2023-05-20T01:50:26.543Z,3.60
2023-05-20T01:52:54.127Z,3.28
2023-05-20T01:55:21.166Z,3.35
2023-05-20T01:57:48.121Z,3.45
2023-05-20T02:00:15.333Z,3.35
2023-05-20T02:02:44.661Z,3.22
2023-05-20T02:05:12.983Z,3.53
2023-05-20T02:07:42.719Z,3.33
2023-05-20T02:10:10.503Z,2.90
2023-05-20T02:12:37.725Z,3.33
2023-05-20T02:15:05.871Z,3.20
2023-05-20T02:17:32.902Z,3.60
2023-05-20T02:19:59.969Z,2.92
2023-05-20T02:22:26.928Z,3.10
2023-05-20T02:24:53.883Z,2.95
2023-05-20T02:27:20.846Z,2.85
2023-05-20T02:29:47.796Z,2.53
2023-05-20T02:32:14.778Z,3.05
2023-05-20T02:34:41.968Z,3.17
2023-05-20T02:37:08.943Z,2.83
2023-05-20T02:39:36.002Z,3.67
2023-05-20T02:42:04.623Z,3.03
2023-05-20T02:44:31.719Z,2.90
2023-05-20T02:46:58.667Z,3.53
2023-05-20T02:49:25.744Z,2.70
2023-05-20T02:51:52.695Z,2.92
2023-05-20T02:54:19.729Z,3.13
2023-05-20T02:56:46.706Z,3.08
2023-05-20T02:59:13.817Z,3.00
2023-05-20T03:01:41.216Z,3.22
2023-05-20T03:04:08.703Z,3.15
2023-05-20T03:06:38.178Z,3.13
2023-05-20T03:09:05.953Z,3.30
2023-05-20T03:11:32.930Z,3.17
2023-05-20T03:14:00.041Z,2.90
2023-05-20T03:16:28.253Z,3.05
2023-05-20T03:18:55.420Z,4.13
2023-05-20T03:21:24.117Z,2.78
2023-05-20T03:23:51.350Z,2.88
2023-05-20T03:26:19.282Z,3.40
2023-05-20T03:28:46.327Z,3.10
2023-05-20T03:31:13.465Z,3.22
2023-05-20T03:33:40.738Z,4.43
2023-05-20T03:36:07.872Z,3.13
2023-05-20T03:38:35.077Z,2.90
2023-05-20T03:41:02.021Z,3.17
2023-05-20T03:43:28.998Z,3.35
2023-05-20T03:45:56.923Z,3.60
2023-05-20T03:48:24.006Z,2.95
2023-05-20T03:50:51.115Z,3.25
2023-05-20T03:53:20.124Z,3.22
2023-05-20T03:55:47.173Z,3.13
2023-05-20T03:58:15.453Z,3.60
2023-05-20T04:00:42.649Z,3.40
2023-05-20T04:03:10.544Z,3.35
2023-05-20T04:05:37.828Z,3.97
2023-05-20T04:08:13.681Z,3.28
2023-05-20T04:10:43.945Z,3.10
2023-05-20T04:13:12.185Z,3.22
2023-05-20T04:15:39.908Z,3.25
2023-05-20T04:18:07.022Z,3.78
2023-05-20T04:20:34.671Z,3.15
2023-05-20T04:23:02.132Z,3.17
2023-05-20T04:25:29.223Z,2.88
2023-05-20T04:27:57.815Z,3.55
2023-05-20T04:30:25.216Z,3.65
2023-05-20T04:32:52.258Z,3.40
2023-05-20T04:35:19.633Z,3.75
2023-05-20T04:37:49.261Z,3.85
2023-05-20T04:40:17.168Z,3.78
2023-05-20T04:42:44.896Z,3.50
2023-05-20T04:45:12.675Z,4.00
2023-05-20T04:47:41.893Z,3.70
2023-05-20T04:50:16.377Z,3.28
2023-05-20T04:52:43.830Z,3.72
2023-05-20T04:55:12.047Z,3.85
2023-05-20T04:57:42.011Z,3.63
2023-05-20T05:00:10.866Z,3.63
2023-05-20T05:02:38.542Z,3.38
2023-05-20T05:05:06.795Z,4.03
2023-05-20T05:07:33.967Z,4.10
2023-05-20T05:10:01.286Z,3.60
2023-05-20T05:12:30.696Z,3.80
2023-05-20T05:14:59.242Z,3.88
2023-05-20T05:17:28.763Z,3.90
2023-05-20T05:19:57.057Z,3.72
2023-05-20T05:22:24.582Z,3.88
2023-05-20T05:24:52.377Z,3.85
2023-05-20T05:27:19.358Z,4.40
2023-05-20T05:29:46.593Z,4.28
2023-05-20T05:32:13.579Z,3.70
2023-05-20T05:34:41.004Z,3.88
2023-05-20T05:37:07.995Z,3.70
2023-05-20T05:39:37.713Z,3.70
2023-05-20T05:42:05.519Z,4.03
2023-05-20T05:44:33.945Z,4.05
2023-05-20T05:47:01.482Z,4.00
2023-05-20T05:49:28.557Z,4.10
2023-05-20T05:51:55.635Z,4.15
2023-05-20T05:54:22.789Z,4.43
2023-05-20T05:56:54.117Z,4.55
2023-05-20T05:59:21.509Z,3.63
2023-05-20T06:01:49.272Z,4.30
2023-05-20T06:04:16.836Z,3.92
2023-05-20T06:06:43.950Z,4.18
2023-05-20T06:09:10.987Z,4.50
2023-05-20T06:11:38.010Z,3.92
2023-05-20T06:14:04.994Z,4.38
2023-05-20T06:16:32.025Z,3.70
2023-05-20T06:19:03.473Z,4.47
2023-05-20T06:21:32.626Z,4.25
2023-05-20T06:23:59.791Z,3.40
2023-05-20T06:26:27.218Z,4.18
2023-05-20T06:28:54.358Z,4.22
2023-05-20T06:31:22.380Z,3.88
2023-05-20T06:33:50.172Z,3.65
2023-05-20T06:36:17.727Z,3.83
2023-05-20T06:38:44.895Z,4.18
2023-05-20T06:41:14.490Z,4.47
2023-05-20T06:43:41.761Z,4.05
2023-05-20T06:46:31.431Z,3.67
2023-05-20T06:49:06.659Z,3.67
2023-05-20T06:51:33.891Z,3.83
2023-05-20T06:54:01.526Z,3.80
2023-05-20T06:56:28.740Z,3.53
2023-05-20T06:58:56.023Z,4.00
2023-05-20T07:01:23.279Z,3.83
2023-05-20T07:03:50.582Z,3.88
2023-05-20T07:06:17.942Z,3.75
2023-05-20T07:08:45.076Z,4.13
2023-05-20T07:11:12.733Z,4.10
2023-05-20T07:13:39.963Z,3.88
2023-05-20T07:16:07.413Z,3.55
2023-05-20T07:18:40.291Z,3.67
2023-05-20T07:21:07.293Z,3.25
2023-05-20T07:23:57.161Z,3.63
2023-05-20T07:26:24.283Z,3.30
2023-05-20T07:28:52.021Z,3.80
2023-05-20T07:31:19.053Z,4.40
2023-05-20T07:33:46.699Z,3.80
2023-05-20T07:36:13.716Z,3.70
2023-05-20T07:38:49.957Z,2.78
2023-05-20T07:41:29.004Z,3.40
2023-05-20T07:43:56.651Z,2.05
2023-05-20T07:46:23.793Z,3.15
2023-05-20T07:48:51.266Z,2.88
2023-05-20T07:51:19.031Z,3.25
2023-05-20T07:53:46.259Z,2.65
2023-05-20T07:56:13.435Z,2.67
2023-05-20T07:58:43.873Z,2.78
2023-05-20T08:01:11.718Z,2.58
2023-05-20T08:03:38.776Z,3.50
2023-05-20T08:06:13.128Z,3.10
2023-05-20T08:08:41.481Z,2.72
2023-05-20T08:11:14.345Z,2.55
2023-05-20T08:13:42.242Z,3.00
2023-05-20T08:16:09.942Z,2.42
2023-05-20T08:18:37.964Z,2.60
2023-05-20T08:21:09.971Z,2.20
2023-05-20T08:23:39.681Z,2.80
2023-05-20T08:26:07.898Z,2.10
2023-05-20T08:28:38.236Z,2.50
2023-05-20T08:31:05.646Z,2.08
2023-05-20T08:33:33.415Z,2.53
2023-05-20T08:36:00.944Z,1.58
2023-05-20T08:38:28.716Z,2.22
2023-05-20T08:40:57.837Z,2.83
2023-05-20T08:43:26.443Z,2.33
2023-05-20T08:45:53.722Z,2.60
2023-05-20T08:48:24.923Z,2.72
2023-05-20T08:50:53.568Z,2.60
2023-05-20T08:53:24.026Z,2.65
2023-05-20T08:56:00.936Z,2.20
2023-05-20T08:58:29.459Z,2.20
2023-05-20T09:00:56.579Z,2.35
2023-05-20T09:03:24.450Z,2.20
2023-05-20T09:05:52.910Z,2.00
2023-05-20T09:08:26.438Z,2.25
2023-05-20T09:10:54.451Z,2.22
2023-05-20T09:13:23.640Z,2.10
2023-05-20T09:15:51.049Z,2.40
2023-05-20T09:18:18.267Z,1.83
2023-05-20T09:20:47.799Z,2.13
2023-05-20T09:23:14.800Z,2.25
2023-05-20T09:25:42.165Z,2.00
2023-05-20T09:28:09.481Z,1.75
2023-05-20T09:30:36.689Z,2.17
2023-05-20T09:33:05.475Z,1.98
2023-05-20T09:35:37.798Z,2.50
2023-05-20T09:38:07.695Z,2.60
2023-05-20T09:40:37.886Z,2.33
2023-05-20T09:43:11.367Z,2.13
2023-05-20T09:45:38.985Z,2.05
2023-05-20T09:48:07.138Z,2.08
2023-05-20T09:50:35.134Z,2.30
2023-05-20T09:53:03.790Z,2.13
2023-05-20T09:55:31.747Z,1.90
2023-05-20T09:58:02.760Z,1.80
2023-05-20T10:00:30.175Z,2.97
2023-05-20T10:02:57.794Z,2.20
2023-05-20T10:05:33.550Z,1.80
2023-05-20T10:08:03.809Z,2.22
2023-05-20T10:10:56.855Z,1.80
2023-05-20T10:13:32.515Z,2.17
2023-05-20T10:16:13.787Z,1.80
2023-05-20T10:19:23.550Z,1.73
2023-05-20T10:22:06.567Z,1.70
2023-05-20T10:24:41.540Z,2.33
2023-05-20T10:27:14.834Z,1.92
2023-05-20T10:29:43.281Z,2.15
2023-05-20T10:32:10.339Z,1.90
2023-05-20T10:34:48.969Z,1.50
2023-05-20T10:37:25.895Z,1.70
2023-05-20T10:39:53.283Z,1.67
2023-05-20T10:42:31.384Z,1.70
2023-05-20T10:44:58.493Z,1.35
2023-05-20T10:47:26.509Z,1.63
2023-05-20T10:49:56.673Z,2.08
2023-05-20T10:52:24.679Z,1.80
2023-05-20T10:54:57.280Z,2.40
2023-05-20T10:57:26.490Z,1.90
2023-05-20T10:59:53.844Z,1.83
2023-05-20T11:02:28.867Z,2.55
2023-05-20T11:04:59.560Z,1.73
2023-05-20T11:07:26.943Z,1.67
2023-05-20T11:09:53.943Z,2.28
2023-05-20T11:12:23.575Z,2.13
2023-05-20T11:14:50.676Z,1.60
2023-05-20T11:17:19.285Z,1.73
2023-05-20T11:19:50.583Z,2.17
2023-05-20T11:22:17.630Z,1.85
2023-05-20T11:24:44.640Z,1.75
2023-05-20T11:27:11.726Z,1.95
2023-05-20T11:29:40.696Z,2.28
2023-05-20T11:32:08.572Z,2.00
2023-05-20T11:34:39.468Z,1.75
2023-05-20T11:37:11.131Z,2.40
2023-05-20T11:39:38.930Z,2.00
2023-05-20T11:42:06.581Z,2.30
2023-05-20T11:44:34.176Z,2.10
2023-05-20T11:47:03.275Z,2.05
2023-05-20T11:49:31.079Z,2.65
2023-05-20T11:51:58.599Z,1.70
2023-05-20T11:54:26.291Z,1.58
2023-05-20T11:56:55.904Z,2.30
2023-05-20T11:59:24.886Z,2.20
2023-05-20T12:01:52.047Z,1.92
2023-05-20T12:04:19.226Z,1.90
2023-05-20T12:06:46.875Z,1.85
2023-05-20T12:09:14.302Z,1.90
2023-05-20T12:11:41.941Z,2.30
2023-05-20T12:14:09.906Z,2.45
2023-05-20T12:16:38.080Z,2.10
2023-05-20T12:19:05.473Z,2.05
2023-05-20T12:21:32.670Z,1.65
2023-05-20T12:23:59.841Z,2.28
2023-05-20T12:26:27.982Z,1.65
2023-05-20T12:28:55.592Z,1.58
2023-05-20T12:31:22.746Z,2.25
2023-05-20T12:33:49.912Z,2.35
2023-05-20T12:36:16.930Z,2.10
2023-05-20T12:38:43.961Z,2.05
2023-05-20T12:41:11.374Z,2.00
2023-05-20T12:43:38.400Z,1.63
2023-05-20T12:46:06.011Z,2.40
2023-05-20T12:48:33.001Z,1.73
2023-05-20T12:51:00.541Z,2.08
2023-05-20T12:53:27.573Z,2.15
2023-05-20T12:55:54.814Z,2.65
2023-05-20T12:58:21.932Z,1.83
2023-05-20T13:00:49.339Z,1.70
2023-05-20T13:03:17.280Z,2.17
2023-05-20T13:05:44.789Z,2.17
2023-05-20T13:08:12.729Z,1.90
2023-05-20T13:10:39.799Z,2.10
2023-05-20T13:13:06.760Z,2.53
2023-05-20T13:15:33.879Z,2.67
2023-05-20T13:18:01.602Z,1.70
2023-05-20T13:20:29.990Z,2.08
2023-05-20T13:22:57.085Z,2.30
2023-05-20T13:25:24.484Z,1.50
2023-05-20T13:27:51.862Z,2.25
2023-05-20T13:30:18.959Z,2.30
2023-05-20T13:32:46.436Z,1.58
2023-05-20T13:35:14.638Z,1.85
2023-05-20T13:37:41.783Z,1.80
2023-05-20T13:40:09.568Z,1.83
2023-05-20T13:42:36.732Z,2.28
2023-05-20T13:45:04.347Z,1.90
2023-05-20T13:47:31.381Z,1.60
2023-05-20T13:49:59.608Z,2.28
2023-05-20T13:52:28.334Z,1.73
2023-05-20T13:54:55.507Z,1.70
2023-05-20T13:57:23.933Z,1.80
2023-05-20T13:59:50.973Z,1.80
2023-05-20T14:02:18.636Z,1.90
2023-05-20T14:04:47.090Z,1.40
2023-05-20T14:07:14.315Z,1.80
2023-05-20T14:09:41.352Z,1.90
2023-05-20T14:12:08.803Z,1.50
2023-05-20T14:14:35.911Z,1.85
2023-05-20T14:17:03.013Z,1.75
2023-05-20T14:19:30.095Z,2.00
2023-05-20T14:21:58.959Z,1.95
2023-05-20T14:24:25.910Z,1.85
2023-05-20T14:26:53.234Z,1.92
2023-05-20T14:29:20.416Z,2.30
2023-05-20T14:31:47.486Z,2.00
2023-05-20T14:34:14.579Z,1.98
2023-05-20T14:36:41.929Z,2.70
2023-05-20T14:39:09.738Z,2.25
2023-05-20T14:41:36.846Z,2.65
2023-05-20T14:44:03.940Z,2.20
2023-05-20T14:46:31.304Z,2.20
2023-05-20T14:48:58.414Z,2.13
2023-05-20T14:51:25.437Z,1.90
2023-05-20T14:53:52.532Z,1.90
2023-05-20T14:56:19.538Z,1.83
2023-05-20T14:58:46.636Z,1.63
2023-05-20T15:01:13.838Z,1.70
2023-05-20T15:03:40.993Z,2.15
2023-05-20T15:06:07.983Z,2.17
2023-05-20T15:08:35.156Z,2.28
2023-05-20T15:11:02.159Z,2.20
2023-05-20T15:13:29.306Z,1.63
2023-05-20T15:15:56.528Z,1.60
2023-05-20T15:18:23.647Z,2.00
2023-05-20T15:20:50.611Z,1.48
2023-05-20T15:23:17.749Z,1.92
2023-05-20T15:25:44.849Z,2.63
2023-05-20T15:28:11.898Z,2.13
2023-05-20T15:30:38.887Z,1.75
2023-05-20T15:33:06.301Z,1.75
2023-05-20T15:35:40.714Z,1.80
2023-05-20T15:38:07.717Z,1.80
2023-05-20T15:40:34.941Z,2.08
2023-05-20T15:43:02.223Z,1.80
2023-05-20T15:45:31.336Z,2.30
2023-05-20T15:47:58.514Z,2.13
2023-05-20T15:50:25.982Z,2.22
2023-05-20T15:52:53.176Z,1.75
2023-05-20T15:55:20.898Z,1.98
2023-05-20T15:57:47.894Z,1.98
2023-05-20T16:00:18.424Z,1.77
2023-05-20T16:02:46.152Z,2.22
2023-05-20T16:05:13.373Z,2.10
2023-05-20T16:07:42.770Z,2.30
2023-05-20T16:10:10.694Z,2.75
2023-05-20T16:12:37.838Z,1.92
2023-05-20T16:15:05.212Z,1.67
2023-05-20T16:17:32.276Z,1.70
2023-05-20T16:19:59.273Z,1.90
2023-05-20T16:22:26.491Z,1.88
2023-05-20T16:24:53.582Z,1.77
2023-05-20T16:27:20.657Z,1.80
2023-05-20T16:29:47.700Z,2.20
2023-05-20T16:32:14.761Z,2.05
2023-05-20T16:34:41.809Z,2.10
2023-05-20T16:37:10.225Z,2.67
2023-05-20T16:39:37.204Z,2.67
2023-05-20T16:42:04.497Z,2.35
2023-05-20T16:44:31.562Z,3.78
2023-05-20T16:46:58.467Z,2.50
2023-05-20T16:49:25.586Z,2.35
2023-05-20T16:51:52.857Z,1.90
2023-05-20T16:54:19.958Z,1.83
2023-05-20T16:56:46.902Z,2.45
2023-05-20T16:59:14.672Z,1.90
2023-05-20T17:01:41.735Z,2.30
2023-05-20T17:04:09.294Z,1.83
2023-05-20T17:06:36.404Z,2.22
2023-05-20T17:09:04.655Z,1.88
2023-05-20T17:11:31.744Z,1.88
2023-05-20T17:13:58.711Z,2.50
2023-05-20T17:16:25.959Z,3.20
2023-05-20T17:18:53.676Z,2.65
2023-05-20T17:21:21.037Z,3.28
2023-05-20T17:23:48.119Z,3.22
2023-05-20T17:26:15.979Z,2.50
2023-05-20T17:28:43.180Z,2.25
2023-05-20T17:31:10.277Z,3.20
2023-05-20T17:33:37.522Z,2.70
2023-05-20T17:36:04.909Z,2.95
2023-05-20T17:38:31.924Z,3.60
2023-05-20T17:40:58.995Z,3.70
2023-05-20T17:43:26.166Z,3.95
2023-05-20T17:45:53.425Z,3.35
2023-05-20T17:48:20.843Z,3.35
2023-05-20T17:50:47.832Z,2.85
2023-05-20T17:53:14.907Z,3.10
2023-05-20T17:55:41.849Z,2.67
2023-05-20T17:58:08.930Z,2.70
2023-05-20T18:00:41.947Z,2.78
2023-05-20T18:03:10.038Z,3.00
2023-05-20T18:05:37.274Z,2.53
2023-05-20T18:08:04.532Z,2.85
2023-05-20T18:10:31.568Z,3.08
2023-05-20T18:12:58.547Z,2.97
2023-05-20T18:15:25.577Z,3.30
2023-05-20T18:17:52.812Z,3.00
2023-05-20T18:20:20.073Z,2.65
2023-05-20T18:22:47.457Z,3.88
2023-05-20T18:25:15.171Z,2.92
2023-05-20T18:27:42.784Z,3.33
2023-05-20T18:30:10.673Z,3.08
2023-05-20T18:32:38.868Z,3.28
2023-05-20T18:35:06.469Z,2.42
2023-05-20T18:37:33.463Z,3.15
2023-05-20T18:40:00.528Z,3.00
2023-05-20T18:42:27.554Z,2.85
2023-05-20T18:44:54.682Z,2.78
2023-05-20T18:47:21.840Z,3.00
2023-05-20T18:49:48.852Z,3.08
2023-05-20T18:52:15.885Z,3.55
2023-05-20T18:54:42.873Z,3.20
2023-05-20T18:57:10.184Z,3.00
2023-05-20T18:59:37.185Z,3.03
2023-05-20T19:02:04.289Z,3.17
2023-05-20T19:04:31.516Z,2.80
2023-05-20T19:06:59.156Z,3.03
2023-05-20T19:09:26.107Z,3.15
2023-05-20T19:11:56.790Z,2.60
2023-05-20T19:14:23.777Z,3.13
2023-05-20T19:16:51.016Z,2.63
2023-05-20T19:19:18.257Z,2.90
2023-05-20T19:21:46.118Z,2.90
2023-05-20T19:24:13.177Z,2.50
2023-05-20T19:26:40.198Z,2.60
2023-05-20T19:29:07.146Z,3.28
2023-05-20T19:31:34.279Z,2.97
2023-05-20T19:34:01.340Z,2.33
2023-05-20T19:36:28.337Z,3.58
2023-05-20T19:38:56.007Z,3.53
2023-05-20T19:41:22.996Z,4.10
2023-05-20T19:43:50.052Z,3.42
2023-05-20T19:46:17.241Z,3.20
2023-05-20T19:48:47.084Z,3.20
2023-05-20T19:51:14.139Z,3.15
2023-05-20T19:53:41.171Z,2.95
2023-05-20T19:56:08.323Z,3.05
2023-05-20T19:58:35.592Z,2.97
2023-05-20T20:01:02.684Z,2.53
2023-05-20T20:03:30.025Z,3.53
2023-05-20T20:05:57.355Z,3.00
2023-05-20T20:08:24.448Z,3.13
2023-05-20T20:10:51.482Z,2.45
2023-05-20T20:13:18.506Z,3.25
2023-05-20T20:15:45.571Z,3.17
2023-05-20T20:18:12.567Z,3.60
2023-05-20T20:20:42.613Z,3.08
2023-05-20T20:23:09.854Z,3.00
2023-05-20T20:25:38.961Z,3.70
2023-05-20T20:28:07.350Z,3.50
2023-05-20T20:30:35.129Z,3.28
2023-05-20T20:33:07.067Z,3.30
2023-05-20T20:35:34.788Z,2.97
2023-05-20T20:38:08.497Z,3.80
2023-05-20T20:40:41.769Z,3.03
2023-05-20T20:43:10.924Z,2.75
2023-05-20T20:45:38.056Z,3.05
2023-05-20T20:48:07.756Z,3.30
2023-05-20T20:50:36.577Z,3.30
2023-05-20T20:53:03.805Z,3.33
2023-05-20T20:55:30.934Z,3.40
2023-05-20T20:58:02.803Z,3.72
2023-05-20T21:00:29.977Z,3.75
2023-05-20T21:02:56.998Z,3.85
2023-05-20T21:05:26.591Z,3.40
2023-05-20T21:07:58.226Z,3.60
2023-05-20T21:10:29.768Z,3.42
2023-05-20T21:12:58.044Z,3.50
2023-05-20T21:15:26.198Z,4.18
2023-05-20T21:17:53.529Z,4.18
2023-05-20T21:20:21.783Z,3.83
2023-05-20T21:22:49.098Z,4.07
2023-05-20T21:25:16.147Z,4.43
2023-05-20T21:27:43.295Z,3.80
2023-05-20T21:30:11.360Z,4.13
2023-05-20T21:32:38.691Z,4.45
2023-05-20T21:35:06.158Z,4.13
2023-05-20T21:37:33.172Z,4.13
2023-05-20T21:40:00.561Z,4.85
2023-05-20T21:42:28.024Z,4.18
2023-05-20T21:44:55.563Z,4.93
2023-05-20T21:47:22.542Z,4.30
2023-05-20T21:49:49.587Z,4.18
2023-05-20T21:52:16.564Z,4.45
2023-05-20T21:54:43.781Z,4.70
2023-05-20T21:57:10.762Z,4.70
2023-05-20T21:59:37.727Z,4.90
2023-05-20T22:02:04.985Z,4.50
2023-05-20T22:04:33.466Z,5.38
2023-05-20T22:07:00.924Z,4.60
2023-05-20T22:09:28.008Z,5.72
2023-05-20T22:11:55.258Z,5.43
2023-05-20T22:14:22.268Z,5.25
2023-05-20T22:16:49.539Z,5.45
2023-05-20T22:19:17.537Z,4.97
2023-05-20T22:21:50.746Z,5.43
2023-05-20T22:24:18.446Z,4.95
2023-05-20T22:26:45.767Z,4.40
2023-05-20T22:29:12.831Z,4.38
2023-05-20T22:31:39.910Z,4.88
2023-05-20T22:34:07.030Z,4.05
2023-05-20T22:36:34.307Z,4.28
2023-05-20T22:39:02.340Z,4.43
2023-05-20T22:41:29.703Z,4.32
2023-05-20T22:43:56.886Z,4.25
2023-05-20T22:46:24.254Z,3.65
2023-05-20T22:48:55.464Z,3.72
2023-05-20T22:51:22.836Z,3.60
2023-05-20T22:53:50.998Z,3.60
2023-05-20T22:56:18.536Z,3.30
2023-05-20T22:58:45.897Z,3.47
2023-05-20T23:01:13.369Z,3.65
2023-05-20T23:03:40.560Z,3.47
2023-05-20T23:06:07.817Z,2.67
2023-05-20T23:08:34.804Z,2.88
2023-05-20T23:11:01.810Z,3.47
2023-05-20T23:13:28.863Z,3.05
2023-05-20T23:15:55.866Z,3.15
2023-05-20T23:18:22.918Z,3.38
2023-05-20T23:20:50.700Z,3.40
2023-05-20T23:23:20.761Z,3.55
2023-05-20T23:25:54.932Z,3.17
2023-05-20T23:28:22.233Z,2.60
2023-05-20T23:30:49.480Z,2.88
2023-05-20T23:33:17.412Z,3.00
2023-05-20T23:35:44.671Z,2.55
2023-05-20T23:38:11.664Z,2.75
2023-05-20T23:40:38.599Z,2.90
2023-05-20T23:43:05.586Z,3.30
2023-05-20T23:45:32.531Z,3.03
2023-05-20T23:48:01.314Z,2.78
2023-05-20T23:50:28.355Z,3.17
2023-05-20T23:52:55.358Z,3.30
2023-05-20T23:55:22.405Z,2.97
2023-05-20T23:57:49.914Z,3.30
